createdAt,value
2018-12-26T00:02:24.590Z,102413.89
2018-12-26T00:04:55.514Z,102413.89
2018-12-26T00:07:26.455Z,102424.64
2018-12-26T00:09:57.441Z,102410.06
2018-12-26T00:12:28.659Z,102413.04
2018-12-26T00:14:59.559Z,102416.48
2018-12-26T00:17:30.864Z,102410.91
2018-12-26T00:20:01.890Z,102406.64
2018-12-26T00:22:32.913Z,102404.47
2018-12-26T00:25:03.912Z,102403.16
2018-12-26T00:27:34.879Z,102400.61
2018-12-26T00:30:06.011Z,102404.91
2018-12-26T00:32:37.287Z,102414.36
2018-12-26T00:35:08.269Z,102410.91
2018-12-26T00:37:39.509Z,102405.32
2018-12-26T00:40:10.388Z,102417.34
2018-12-26T00:42:41.608Z,102414.73
2018-12-26T00:45:12.484Z,102428.03
2018-12-26T00:47:43.425Z,102427.63
2018-12-26T00:50:14.320Z,102417.77
2018-12-26T00:52:45.318Z,102425.91
2018-12-26T00:55:16.219Z,102409.20
2018-12-26T00:57:47.128Z,102422.08
2018-12-26T01:00:18.360Z,102413.91
2018-12-26T01:02:49.320Z,102414.35
2018-12-26T01:05:20.207Z,102416.48
2018-12-26T01:07:51.134Z,102406.61
2018-12-26T01:10:22.308Z,102407.89
2018-12-26T01:12:53.245Z,102413.07
2018-12-26T01:15:24.125Z,102402.75
2018-12-26T01:17:55.009Z,102413.01
2018-12-26T01:20:25.957Z,102413.05
2018-12-26T01:22:56.851Z,102413.89
2018-12-26T01:25:27.811Z,102416.02
2018-12-26T01:27:58.680Z,102413.48
2018-12-26T01:30:35.542Z,102405.33
2018-12-26T01:33:06.462Z,102406.17
2018-12-26T01:35:37.380Z,102394.62
2018-12-26T01:38:08.340Z,102392.45
2018-12-26T01:40:39.225Z,102396.30
2018-12-26T01:43:10.459Z,102390.33
2018-12-26T01:45:41.329Z,102382.16
2018-12-26T01:48:12.204Z,102374.02
2018-12-26T01:50:43.105Z,102377.88
2018-12-26T01:53:13.984Z,102372.30
2018-12-26T01:55:44.924Z,102371.44
2018-12-26T01:58:15.802Z,102372.30
2018-12-26T02:00:46.714Z,102366.73
2018-12-26T02:03:17.616Z,102371.44
2018-12-26T02:05:48.781Z,102372.73
2018-12-26T02:08:19.861Z,102366.71
2018-12-26T02:10:50.775Z,102356.88
2018-12-26T02:13:21.709Z,102367.17
2018-12-26T02:15:52.596Z,102361.56
2018-12-26T02:18:23.468Z,102349.17
2018-12-26T02:20:56.109Z,102354.72
2018-12-26T02:23:27.027Z,102354.29
2018-12-26T02:25:58.239Z,102345.30
2018-12-26T02:28:29.160Z,102344.87
2018-12-26T02:31:00.095Z,102340.14
2018-12-26T02:33:31.370Z,102326.42
2018-12-26T02:36:02.257Z,102334.58
2018-12-26T02:38:33.177Z,102331.16
2018-12-26T02:41:04.058Z,102334.15
2018-12-26T02:43:35.308Z,102325.57
2018-12-26T02:46:06.196Z,102322.16
2018-12-26T02:48:37.112Z,102327.30
2018-12-26T02:51:08.343Z,102324.72
2018-12-26T02:53:39.233Z,102313.56
2018-12-26T02:56:10.444Z,102316.58
2018-12-26T02:58:41.616Z,102322.13
2018-12-26T03:01:12.612Z,102309.28
2018-12-26T03:03:43.591Z,102314.84
2018-12-26T03:06:14.794Z,102319.57
2018-12-26T03:08:45.716Z,102315.28
2018-12-26T03:11:16.880Z,102323.00
2018-12-26T03:13:48.494Z,102317.84
2018-12-26T03:16:19.625Z,102317.44
2018-12-26T03:18:50.578Z,102309.72
2018-12-26T03:21:21.457Z,102314.44
2018-12-26T03:23:52.632Z,102305.84
2018-12-26T03:26:23.550Z,102287.43
2018-12-26T03:28:54.491Z,102295.98
2018-12-26T03:31:25.429Z,102293.84
2018-12-26T03:33:56.308Z,102299.84
2018-12-26T03:36:27.290Z,102291.69
2018-12-26T03:38:59.667Z,102284.00
2018-12-26T03:41:31.532Z,102285.70
2018-12-26T03:44:02.727Z,102286.12
2018-12-26T03:46:35.707Z,102283.98
2018-12-26T03:49:06.689Z,102280.14
2018-12-26T03:51:37.863Z,102283.13
2018-12-26T03:54:08.789Z,102285.27
2018-12-26T03:56:39.669Z,102287.43
2018-12-26T03:59:10.548Z,102280.56
2018-12-26T04:01:41.433Z,102278.41
2018-12-26T04:04:12.310Z,102276.70
2018-12-26T04:06:43.597Z,102267.28
2018-12-26T04:09:14.510Z,102267.70
2018-12-26T04:11:45.579Z,102267.70
2018-12-26T04:14:16.499Z,102270.69
2018-12-26T04:16:47.422Z,102271.13
2018-12-26T04:19:18.851Z,102274.13
2018-12-26T04:21:49.795Z,102271.97
2018-12-26T04:24:20.782Z,102275.41
2018-12-26T04:26:51.986Z,102266.41
2018-12-26T04:29:22.900Z,102274.13
2018-12-26T04:31:54.109Z,102268.13
2018-12-26T04:34:25.258Z,102265.97
2018-12-26T04:36:56.137Z,102267.70
2018-12-26T04:39:27.067Z,102271.97
2018-12-26T04:41:58.060Z,102261.28
2018-12-26T04:44:29.050Z,102269.41
2018-12-26T04:46:59.942Z,102276.70
2018-12-26T04:49:30.934Z,102273.70
2018-12-26T04:52:01.906Z,102274.54
2018-12-26T04:54:33.124Z,102267.27
2018-12-26T04:57:04.024Z,102268.97
2018-12-26T04:59:35.283Z,102270.26
2018-12-26T05:02:06.289Z,102265.11
2018-12-26T05:04:37.179Z,102263.39
2018-12-26T05:07:08.093Z,102262.11
2018-12-26T05:09:39.295Z,102260.83
2018-12-26T05:12:10.176Z,102264.23
2018-12-26T05:14:41.102Z,102270.19
2018-12-26T05:17:12.017Z,102261.64
2018-12-26T05:19:42.933Z,102262.07
2018-12-26T05:22:13.833Z,102256.49
2018-12-26T05:24:45.132Z,102250.07
2018-12-26T05:27:16.025Z,102265.05
2018-12-26T05:29:46.924Z,102260.77
2018-12-26T05:32:17.938Z,102271.48
2018-12-26T05:34:49.168Z,102279.19
2018-12-26T05:37:20.045Z,102277.91
2018-12-26T05:39:51.005Z,102276.17
2018-12-26T05:42:22.232Z,102285.14
2018-12-26T05:44:53.404Z,102279.16
2018-12-26T05:47:24.290Z,102277.87
2018-12-26T05:49:55.175Z,102282.60
2018-12-26T05:52:26.102Z,102282.60
2018-12-26T05:54:57.650Z,102294.16
2018-12-26T05:57:28.585Z,102286.45
2018-12-26T05:59:59.479Z,102285.20
2018-12-26T06:02:30.344Z,102288.21
2018-12-26T06:05:01.272Z,102287.78
2018-12-26T06:07:32.194Z,102282.23
2018-12-26T06:10:03.448Z,102287.78
2018-12-26T06:12:34.335Z,102285.20
2018-12-26T06:15:05.330Z,102283.48
2018-12-26T06:17:36.447Z,102282.22
2018-12-26T06:20:07.572Z,102288.22
2018-12-26T06:22:38.494Z,102280.94
2018-12-26T06:25:09.425Z,102273.23
2018-12-26T06:27:40.373Z,102275.80
2018-12-26T06:30:11.469Z,102272.82
2018-12-26T06:32:42.470Z,102276.64
2018-12-26T06:35:13.462Z,102277.93
2018-12-26T06:37:44.347Z,102284.80
2018-12-26T06:40:15.266Z,102285.17
2018-12-26T06:42:46.199Z,102284.77
2018-12-26T06:45:17.079Z,102287.34
2018-12-26T06:47:48.161Z,102289.06
2018-12-26T06:50:19.055Z,102288.19
2018-12-26T06:52:49.978Z,102284.33
2018-12-26T06:55:20.871Z,102286.48
2018-12-26T06:57:59.902Z,102286.86
2018-12-26T07:00:24.393Z,102289.03
2018-12-26T07:02:55.273Z,102283.89
2018-12-26T07:05:26.230Z,102275.74
2018-12-26T07:07:57.155Z,102280.87
2018-12-26T07:10:28.062Z,102276.62
2018-12-26T07:12:59.538Z,102281.31
2018-12-26T07:15:30.445Z,102297.17
2018-12-26T07:18:01.381Z,102300.16
2018-12-26T07:20:32.282Z,102298.91
2018-12-26T07:23:03.174Z,102301.88
2018-12-26T07:25:34.067Z,102304.48
2018-12-26T07:28:09.252Z,102311.34
2018-12-26T07:30:37.870Z,102312.63
2018-12-26T07:33:08.778Z,102311.75
2018-12-26T07:35:39.693Z,102305.33
2018-12-26T07:38:10.626Z,102309.19
2018-12-26T07:40:42.068Z,102312.63
2018-12-26T07:43:13.079Z,102313.92
2018-12-26T07:45:43.974Z,102311.79
2018-12-26T07:48:14.947Z,102310.06
2018-12-26T07:50:46.164Z,102302.35
2018-12-26T07:53:17.337Z,102301.50
2018-12-26T07:55:48.257Z,102309.62
2018-12-26T07:58:19.136Z,102307.90
2018-12-26T08:00:50.071Z,102311.75
2018-12-26T08:03:21.258Z,102310.88
2018-12-26T08:05:52.717Z,102311.75
2018-12-26T08:08:23.624Z,102307.02
2018-12-26T08:10:54.604Z,102313.88
2018-12-26T08:13:25.543Z,102308.30
2018-12-26T08:15:56.439Z,102308.74
2018-12-26T08:18:27.551Z,102310.88
2018-12-26T08:20:58.437Z,102302.72
2018-12-26T08:23:29.324Z,102303.20
2018-12-26T08:26:00.229Z,102304.89
2018-12-26T08:28:31.118Z,102304.89
2018-12-26T08:31:02.015Z,102309.19
2018-12-26T08:33:32.904Z,102311.75
2018-12-26T08:36:04.124Z,102311.72
2018-12-26T08:38:35.314Z,102321.16
2018-12-26T08:41:06.236Z,102324.60
2018-12-26T08:43:37.419Z,102327.17
2018-12-26T08:46:08.604Z,102326.30
2018-12-26T08:48:39.502Z,102324.16
2018-12-26T08:51:10.407Z,102329.34
2018-12-26T08:53:41.632Z,102328.49
2018-12-26T08:56:12.598Z,102331.06
2018-12-26T08:58:43.474Z,102331.91
2018-12-26T09:01:14.425Z,102330.59
2018-12-26T09:03:45.305Z,102324.20
2018-12-26T09:06:16.480Z,102321.59
2018-12-26T09:08:47.391Z,102318.17
2018-12-26T09:11:18.282Z,102316.05
2018-12-26T09:13:49.281Z,102314.80
2018-12-26T09:16:20.740Z,102320.31
2018-12-26T09:18:51.640Z,102325.45
2018-12-26T09:21:22.848Z,102323.32
2018-12-26T09:23:53.732Z,102321.59
2018-12-26T09:26:24.649Z,102320.78
2018-12-26T09:28:55.527Z,102315.20
2018-12-26T09:31:26.403Z,102314.36
2018-12-26T09:33:57.650Z,102316.08
2018-12-26T09:36:28.539Z,102310.94
2018-12-26T09:39:00.063Z,102316.08
2018-12-26T09:41:30.962Z,102311.79
2018-12-26T09:44:01.924Z,102314.36
2018-12-26T09:46:32.834Z,102307.93
2018-12-26T09:49:03.721Z,102307.49
2018-12-26T09:51:34.962Z,102301.06
2018-12-26T09:54:05.864Z,102312.63
2018-12-26T09:56:36.733Z,102307.05
2018-12-26T09:59:07.661Z,102301.50
2018-12-26T10:01:38.555Z,102306.20
2018-12-26T10:04:09.536Z,102299.38
2018-12-26T10:06:40.461Z,102305.33
2018-12-26T10:09:11.344Z,102298.50
2018-12-26T10:11:42.250Z,102295.05
2018-12-26T10:14:13.174Z,102300.22
2018-12-26T10:16:44.152Z,102303.23
2018-12-26T10:19:15.071Z,102301.94
2018-12-26T10:21:46.231Z,102298.94
2018-12-26T10:24:17.164Z,102300.68
2018-12-26T10:26:48.411Z,102304.95
2018-12-26T10:29:19.343Z,102307.52
2018-12-26T10:31:50.254Z,102307.55
2018-12-26T10:34:21.419Z,102316.95
2018-12-26T10:36:52.436Z,102308.83
2018-12-26T10:39:23.341Z,102313.95
2018-12-26T10:41:54.311Z,102310.53
2018-12-26T10:44:25.252Z,102301.97
2018-12-26T10:46:56.229Z,102301.53
2018-12-26T10:49:27.137Z,102295.97
2018-12-26T10:51:58.025Z,102295.11
2018-12-26T10:54:29.049Z,102289.95
2018-12-26T10:56:59.924Z,102295.98
2018-12-26T10:59:31.081Z,102292.98
2018-12-26T11:02:01.998Z,102290.84
2018-12-26T11:04:33.186Z,102296.80
2018-12-26T11:07:04.113Z,102298.52
2018-12-26T11:09:35.031Z,102292.13
2018-12-26T11:12:05.955Z,102291.68
2018-12-26T11:14:37.305Z,102289.55
2018-12-26T11:17:08.677Z,102284.82
2018-12-26T11:19:39.716Z,102287.82
2018-12-26T11:22:10.585Z,102291.23
2018-12-26T11:24:41.469Z,102292.09
2018-12-26T11:27:12.389Z,102290.81
2018-12-26T11:29:43.856Z,102288.67
2018-12-26T11:32:15.380Z,102283.97
2018-12-26T11:34:46.288Z,102284.82
2018-12-26T11:37:17.201Z,102287.82
2018-12-26T11:39:48.541Z,102282.24
2018-12-26T11:42:19.716Z,102280.13
2018-12-26T11:44:50.671Z,102281.40
2018-12-26T11:47:21.563Z,102283.12
2018-12-26T11:49:52.483Z,102284.37
2018-12-26T11:52:23.418Z,102288.67
2018-12-26T11:54:54.425Z,102284.40
2018-12-26T11:57:25.353Z,102294.23
2018-12-26T11:59:56.237Z,102286.95
2018-12-26T12:02:27.151Z,102297.27
2018-12-26T12:04:58.357Z,102300.67
2018-12-26T12:07:29.275Z,102298.98
2018-12-26T12:10:00.448Z,102295.53
2018-12-26T12:12:31.401Z,102301.11
2018-12-26T12:15:02.489Z,102299.83
2018-12-26T12:17:33.372Z,102295.97
2018-12-26T12:20:05.116Z,102292.96
2018-12-26T12:22:35.998Z,102294.69
2018-12-26T12:25:06.974Z,102300.24
2018-12-26T12:27:38.784Z,102296.38
2018-12-26T12:30:09.827Z,102295.09
2018-12-26T12:32:40.770Z,102293.84
2018-12-26T12:35:11.805Z,102296.83
2018-12-26T12:37:42.966Z,102294.70
2018-12-26T12:40:14.412Z,102298.10
2018-12-26T12:42:45.821Z,102289.12
2018-12-26T12:45:17.030Z,102291.69
2018-12-26T12:47:47.906Z,102292.55
2018-12-26T12:50:18.836Z,102302.42
2018-12-26T12:52:49.697Z,102294.27
2018-12-26T12:55:20.659Z,102299.86
2018-12-26T12:57:52.090Z,102296.84
2018-12-26T13:00:23.021Z,102296.40
2018-12-26T13:03:00.337Z,102295.11
2018-12-26T13:05:26.835Z,102296.83
2018-12-26T13:07:57.758Z,102301.98
2018-12-26T13:10:28.636Z,102292.97
2018-12-26T13:12:59.526Z,102298.98
2018-12-26T13:15:30.468Z,102300.27
2018-12-26T13:18:01.361Z,102301.54
2018-12-26T13:20:32.566Z,102306.27
2018-12-26T13:23:03.438Z,102303.28
2018-12-26T13:25:34.613Z,102301.54
2018-12-26T13:28:05.524Z,102304.58
2018-12-26T13:30:49.083Z,102306.27
2018-12-26T13:33:19.983Z,102300.28
2018-12-26T13:35:50.884Z,102302.00
2018-12-26T13:38:22.014Z,102303.72
2018-12-26T13:40:53.295Z,102299.42
2018-12-26T13:43:24.551Z,102302.84
2018-12-26T13:45:55.460Z,102307.11
2018-12-26T13:48:26.355Z,102306.30
2018-12-26T13:50:57.280Z,102308.86
2018-12-26T13:53:29.567Z,102313.13
2018-12-26T13:56:00.598Z,102313.13
2018-12-26T13:58:31.457Z,102306.69
2018-12-26T14:01:02.332Z,102308.44
2018-12-26T14:03:33.270Z,102305.42
2018-12-26T14:06:04.186Z,102306.70
2018-12-26T14:08:37.994Z,102308.41
2018-12-26T14:11:08.878Z,102310.56
2018-12-26T14:13:39.767Z,102306.30
2018-12-26T14:16:10.715Z,102311.42
2018-12-26T14:18:41.585Z,102313.13
2018-12-26T14:21:12.818Z,102308.86
2018-12-26T14:23:43.693Z,102307.98
2018-12-26T14:26:14.695Z,102312.28
2018-12-26T14:28:45.619Z,102313.14
2018-12-26T14:31:16.512Z,102311.42
2018-12-26T14:33:47.456Z,102314.01
2018-12-26T14:36:18.359Z,102311.02
2018-12-26T14:38:49.279Z,102308.42
2018-12-26T14:41:20.205Z,102309.28
2018-12-26T14:43:51.389Z,102304.13
2018-12-26T14:46:22.321Z,102307.13
2018-12-26T14:48:53.230Z,102304.13
2018-12-26T14:51:26.564Z,102302.84
2018-12-26T14:53:57.012Z,102307.16
2018-12-26T14:56:27.913Z,102309.29
2018-12-26T14:58:59.132Z,102300.27
2018-12-26T15:01:30.042Z,102305.85
2018-12-26T15:04:00.944Z,102305.00
2018-12-26T15:06:32.182Z,102305.42
2018-12-26T15:09:03.371Z,102308.84
2018-12-26T15:11:34.646Z,102309.28
2018-12-26T15:14:05.695Z,102306.72
2018-12-26T15:16:36.665Z,102301.13
2018-12-26T15:19:20.926Z,102304.98
2018-12-26T15:21:51.905Z,102292.99
2018-12-26T15:24:22.983Z,102297.70
2018-12-26T15:26:53.896Z,102302.43
2018-12-26T15:29:25.082Z,102302.42
2018-12-26T15:31:56.058Z,102297.70
2018-12-26T15:34:27.256Z,102299.86
2018-12-26T15:36:58.206Z,102305.00
2018-12-26T15:39:29.087Z,102301.98
2018-12-26T15:42:00.049Z,102299.84
2018-12-26T15:44:30.951Z,102305.83
2018-12-26T15:47:01.880Z,102299.42
2018-12-26T15:49:32.866Z,102302.86
2018-12-26T15:52:04.342Z,102302.44
2018-12-26T15:54:35.225Z,102297.69
2018-12-26T15:57:06.149Z,102296.85
2018-12-26T15:59:37.123Z,102294.28
2018-12-26T16:02:08.446Z,102299.84
2018-12-26T16:04:39.621Z,102293.42
2018-12-26T16:07:10.546Z,102293.84
2018-12-26T16:09:41.432Z,102297.28
2018-12-26T16:12:12.616Z,102288.26
2018-12-26T16:14:43.868Z,102295.58
2018-12-26T16:17:15.084Z,102292.13
2018-12-26T16:19:46.001Z,102292.98
2018-12-26T16:22:16.913Z,102291.70
2018-12-26T16:24:47.834Z,102293.84
2018-12-26T16:27:18.812Z,102297.27
2018-12-26T16:29:50.037Z,102298.58
2018-12-26T16:32:20.982Z,102298.56
2018-12-26T16:34:51.883Z,102293.41
2018-12-26T16:37:23.157Z,102291.69
2018-12-26T16:39:54.124Z,102291.27
2018-12-26T16:42:25.023Z,102293.00
2018-12-26T16:44:56.240Z,102289.56
2018-12-26T16:47:27.107Z,102294.70
2018-12-26T16:49:58.006Z,102295.58
2018-12-26T16:52:28.904Z,102291.70
2018-12-26T16:54:59.820Z,102289.98
2018-12-26T16:57:30.793Z,102288.70
2018-12-26T17:00:01.687Z,102289.14
2018-12-26T17:02:32.687Z,102288.71
2018-12-26T17:05:03.602Z,102296.42
2018-12-26T17:07:34.508Z,102290.86
2018-12-26T17:10:05.784Z,102286.12
2018-12-26T17:12:36.660Z,102288.27
2018-12-26T17:15:07.872Z,102286.12
2018-12-26T17:17:38.795Z,102282.28
2018-12-26T17:20:09.834Z,102288.70
2018-12-26T17:22:41.155Z,102286.55
2018-12-26T17:25:12.073Z,102287.84
2018-12-26T17:27:42.969Z,102291.69
2018-12-26T17:30:14.561Z,102295.13
2018-12-26T17:32:45.735Z,102298.98
2018-12-26T17:35:16.829Z,102296.86
2018-12-26T17:37:47.719Z,102300.70
2018-12-26T17:40:18.639Z,102298.55
2018-12-26T17:42:49.841Z,102301.55
2018-12-26T17:45:25.060Z,102306.73
2018-12-26T17:47:56.106Z,102308.87
2018-12-26T17:50:51.580Z,102305.42
2018-12-26T17:54:01.187Z,102312.27
2018-12-26T17:56:56.026Z,102312.30
2018-12-26T17:59:38.828Z,102319.58
2018-12-26T18:02:22.987Z,102314.41
2018-12-26T18:04:53.991Z,102314.84
2018-12-26T18:07:25.194Z,102311.00
2018-12-26T18:09:56.448Z,102316.99
2018-12-26T18:12:27.383Z,102316.98
2018-12-26T18:14:58.296Z,102317.84
2018-12-26T18:17:29.270Z,102320.44
2018-12-26T18:20:00.513Z,102318.71
2018-12-26T18:22:31.460Z,102319.15
2018-12-26T18:25:02.368Z,102320.41
2018-12-26T18:27:33.289Z,102322.13
2018-12-26T18:30:05.722Z,102318.28
2018-12-26T18:32:36.594Z,102318.69
2018-12-26T18:35:08.543Z,102317.42
2018-12-26T18:37:39.458Z,102317.84
2018-12-26T18:40:10.843Z,102315.72
2018-12-26T18:42:41.837Z,102322.14
2018-12-26T18:45:13.084Z,102322.55
2018-12-26T18:47:43.981Z,102320.85
2018-12-26T18:50:15.212Z,102322.14
2018-12-26T18:52:46.090Z,102314.44
2018-12-26T18:55:17.102Z,102312.29
2018-12-26T18:57:48.018Z,102313.55
2018-12-26T19:00:18.900Z,102316.12
2018-12-26T19:02:49.836Z,102318.26
2018-12-26T19:05:20.742Z,102313.14
2018-12-26T19:07:51.711Z,102312.27
2018-12-26T19:10:22.597Z,102314.86
2018-12-26T19:12:54.091Z,102320.87
2018-12-26T19:15:25.331Z,102313.56
2018-12-26T19:17:56.243Z,102313.58
2018-12-26T19:20:27.441Z,102304.98
2018-12-26T19:22:58.311Z,102308.84
2018-12-26T19:25:29.215Z,102312.70
2018-12-26T19:28:00.172Z,102306.28
2018-12-26T19:30:31.148Z,102312.72
2018-12-26T19:33:02.115Z,102302.00
2018-12-26T19:35:33.009Z,102301.56
2018-12-26T19:38:03.931Z,102300.72
2018-12-26T19:40:35.098Z,102290.40
2018-12-26T19:43:06.341Z,102290.84
2018-12-26T19:45:37.214Z,102291.27
2018-12-26T19:48:08.121Z,102292.12
2018-12-26T19:50:39.142Z,102289.56
2018-12-26T19:53:10.361Z,102288.70
2018-12-26T19:55:41.294Z,102289.56
2018-12-26T19:58:12.192Z,102294.72
2018-12-26T20:00:43.501Z,102288.27
2018-12-26T20:03:14.447Z,102289.55
2018-12-26T20:05:45.339Z,102292.14
2018-12-26T20:08:16.269Z,102290.41
2018-12-26T20:10:47.455Z,102283.55
2018-12-26T20:13:18.368Z,102283.54
2018-12-26T20:15:49.277Z,102284.42
2018-12-26T20:18:20.270Z,102281.41
2018-12-26T20:20:51.195Z,102283.55
2018-12-26T20:23:22.166Z,102285.28
2018-12-26T20:25:53.185Z,102279.69
2018-12-26T20:28:24.383Z,102278.39
2018-12-26T20:30:55.629Z,102280.10
2018-12-26T20:33:26.599Z,102277.56
2018-12-26T20:35:57.489Z,102281.83
2018-12-26T20:38:28.410Z,102277.55
2018-12-26T20:40:59.283Z,102274.10
2018-12-26T20:43:30.209Z,102270.70
2018-12-26T20:46:01.167Z,102268.97
2018-12-26T20:48:32.106Z,102273.25
2018-12-26T20:51:03.274Z,102272.83
2018-12-26T20:53:34.435Z,102278.84
2018-12-26T20:56:05.631Z,102271.11
2018-12-26T20:58:36.793Z,102273.67
2018-12-26T21:01:07.707Z,102270.25
2018-12-26T21:03:38.643Z,102276.27
2018-12-26T21:06:09.574Z,102279.26
2018-12-26T21:08:40.580Z,102275.84
2018-12-26T21:11:11.748Z,102272.39
2018-12-26T21:13:43.811Z,102272.82
2018-12-26T21:16:14.897Z,102266.82
2018-12-26T21:18:46.403Z,102270.27
2018-12-26T21:21:17.355Z,102273.27
2018-12-26T21:23:48.369Z,102269.83
2018-12-26T21:26:19.274Z,102274.98
2018-12-26T21:28:50.237Z,102274.12
2018-12-26T21:31:21.268Z,102267.69
2018-12-26T21:33:52.234Z,102268.98
2018-12-26T21:36:23.128Z,102269.82
2018-12-26T21:38:54.048Z,102271.11
2018-12-26T21:41:25.017Z,102257.84
2018-12-26T21:43:55.942Z,102259.13
2018-12-26T21:46:27.132Z,102261.69
2018-12-26T21:48:58.317Z,102259.12
2018-12-26T21:51:29.317Z,102258.26
2018-12-26T21:54:00.207Z,102251.39
2018-12-26T21:56:31.153Z,102253.55
2018-12-26T21:59:02.053Z,102244.97
2018-12-26T22:01:33.016Z,102254.84
2018-12-26T22:04:04.235Z,102249.25
2018-12-26T22:06:35.440Z,102246.67
2018-12-26T22:09:08.570Z,102245.39
2018-12-26T22:11:39.746Z,102244.98
2018-12-26T22:14:10.645Z,102235.98
2018-12-26T22:16:41.607Z,102232.09
2018-12-26T22:19:12.953Z,102241.11
2018-12-26T22:21:43.998Z,102241.55
2018-12-26T22:24:14.912Z,102243.69
2018-12-26T22:26:45.808Z,102240.67
2018-12-26T22:29:16.720Z,102238.12
2018-12-26T22:31:47.642Z,102238.10
2018-12-26T22:34:18.572Z,102241.10
2018-12-26T22:36:49.478Z,102233.84
2018-12-26T22:39:20.720Z,102229.52
2018-12-26T22:41:51.651Z,102234.25
2018-12-26T22:44:27.759Z,102229.55
2018-12-26T22:46:55.187Z,102222.23
2018-12-26T22:49:26.107Z,102222.67
2018-12-26T22:51:57.013Z,102221.83
2018-12-26T22:54:27.945Z,102232.53
2018-12-26T22:56:59.147Z,102229.11
2018-12-26T22:59:30.370Z,102226.98
2018-12-26T23:02:01.617Z,102219.27
2018-12-26T23:04:32.582Z,102229.53
2018-12-26T23:07:03.543Z,102229.55
2018-12-26T23:09:34.749Z,102229.11
2018-12-26T23:12:05.678Z,102221.84
2018-12-26T23:14:36.577Z,102223.55
2018-12-26T23:17:07.544Z,102222.70
2018-12-26T23:19:38.442Z,102222.69
2018-12-26T23:22:09.326Z,102220.53
2018-12-26T23:24:40.550Z,102210.66
2018-12-26T23:27:11.455Z,102217.11
2018-12-26T23:29:42.383Z,102218.39
2018-12-26T23:32:13.274Z,102222.23
2018-12-26T23:34:44.249Z,102217.10
2018-12-26T23:37:15.192Z,102214.97
2018-12-26T23:39:46.407Z,102205.97
2018-12-26T23:42:17.375Z,102218.83
2018-12-26T23:44:48.826Z,102214.53
2018-12-26T23:47:19.728Z,102215.39
2018-12-26T23:49:50.985Z,102214.55
2018-12-26T23:52:21.859Z,102212.83
2018-12-26T23:54:53.112Z,102213.26
2018-12-26T23:57:24.306Z,102202.98
2018-12-26T23:59:55.182Z,102200.40
